createdAt,value
2019-03-08T00:00:42.115Z,1.40
2019-03-08T00:06:00.678Z,1.40
2019-03-08T00:11:19.341Z,1.70
2019-03-08T00:16:37.945Z,1.53
2019-03-08T00:21:56.559Z,1.30
2019-03-08T00:27:15.123Z,1.63
2019-03-08T00:32:33.664Z,1.60
2019-03-08T00:37:52.470Z,2.00
2019-03-08T00:43:11.030Z,2.47
2019-03-08T00:48:29.573Z,1.70
2019-03-08T00:53:48.142Z,1.73
2019-03-08T00:59:06.735Z,1.30
2019-03-08T01:04:25.265Z,1.97
2019-03-08T01:09:43.803Z,1.70
2019-03-08T01:15:02.422Z,2.30
2019-03-08T01:20:21.081Z,1.10
2019-03-08T01:25:39.696Z,1.70
2019-03-08T01:30:58.201Z,1.60
2019-03-08T01:36:16.765Z,1.73
2019-03-08T01:41:35.399Z,1.92
2019-03-08T01:46:53.921Z,1.30
2019-03-08T01:52:12.466Z,2.10
2019-03-08T01:57:30.948Z,2.20
2019-03-08T02:02:49.856Z,1.60
2019-03-08T02:08:08.676Z,2.50
2019-03-08T02:13:27.293Z,3.47
2019-03-08T02:18:45.912Z,2.23
2019-03-08T02:24:04.606Z,3.33
2019-03-08T02:29:23.146Z,3.17
2019-03-08T02:34:41.606Z,2.40
2019-03-08T02:40:00.072Z,3.20
2019-03-08T02:45:18.766Z,2.73
2019-03-08T02:50:37.307Z,1.83
2019-03-08T02:55:55.909Z,4.33
2019-03-08T03:01:14.537Z,4.07
2019-03-08T03:06:33.096Z,3.47
2019-03-08T03:11:51.658Z,3.67
2019-03-08T03:17:10.275Z,2.80
2019-03-08T03:22:28.897Z,5.10
2019-03-08T03:27:47.520Z,2.70
2019-03-08T03:33:06.181Z,2.87
2019-03-08T03:38:24.709Z,3.10
2019-03-08T03:43:43.312Z,3.00
2019-03-08T03:49:01.925Z,2.53
2019-03-08T03:54:20.700Z,2.60
2019-03-08T03:59:39.308Z,2.53
2019-03-08T04:04:58.156Z,3.80
2019-03-08T04:10:17.749Z,1.98
2019-03-08T04:15:36.338Z,3.02
2019-03-08T04:20:55.042Z,3.00
2019-03-08T04:26:13.663Z,2.67
2019-03-08T04:31:32.226Z,3.63
2019-03-08T04:36:50.718Z,3.17
2019-03-08T04:42:09.328Z,2.25
2019-03-08T04:47:27.868Z,3.13
2019-03-08T04:52:46.408Z,4.08
2019-03-08T04:58:04.889Z,3.53
2019-03-08T05:03:23.353Z,3.60
2019-03-08T05:08:41.953Z,5.47
2019-03-08T05:14:00.567Z,4.07
2019-03-08T05:19:19.185Z,5.43
2019-03-08T05:24:38.071Z,5.80
2019-03-08T05:29:57.302Z,5.27
2019-03-08T05:35:19.485Z,4.70
2019-03-08T05:40:38.449Z,5.30
2019-03-08T05:45:57.123Z,3.77
2019-03-08T05:51:15.755Z,6.33
2019-03-08T05:56:34.359Z,5.75
2019-03-08T06:01:52.990Z,8.63
2019-03-08T06:07:11.587Z,6.80
2019-03-08T06:12:30.133Z,2.40
2019-03-08T06:17:48.764Z,6.77
2019-03-08T06:23:07.566Z,6.70
2019-03-08T06:28:26.186Z,4.13
2019-03-08T06:33:44.876Z,3.37
2019-03-08T06:39:04.809Z,4.40
2019-03-08T06:44:23.430Z,4.67
2019-03-08T06:49:41.972Z,3.83
2019-03-08T06:55:00.816Z,4.42
2019-03-08T07:00:37.856Z,5.67
2019-03-08T07:05:56.545Z,3.00
2019-03-08T07:11:15.295Z,4.70
2019-03-08T07:16:33.949Z,3.47
2019-03-08T07:21:54.456Z,3.23
2019-03-08T07:27:23.413Z,5.83
2019-03-08T07:32:43.640Z,4.63
2019-03-08T07:38:06.404Z,3.53
2019-03-08T07:43:29.773Z,5.17
2019-03-08T07:48:56.097Z,5.63
2019-03-08T07:54:22.143Z,4.77
2019-03-08T07:59:53.706Z,6.10
2019-03-08T08:05:27.006Z,4.83
2019-03-08T08:10:47.256Z,3.83
2019-03-08T08:16:07.515Z,5.60
2019-03-08T08:21:33.264Z,4.43
2019-03-08T08:27:09.900Z,6.10
2019-03-08T08:32:36.139Z,4.33
2019-03-08T08:38:05.148Z,4.63
2019-03-08T08:43:43.940Z,4.30
2019-03-08T08:49:20.553Z,5.27
2019-03-08T08:54:44.141Z,6.83
2019-03-08T09:00:10.922Z,5.35
2019-03-08T09:05:31.340Z,6.63
2019-03-08T09:10:51.655Z,5.93
2019-03-08T09:16:11.911Z,5.43
2019-03-08T09:21:32.937Z,4.63
2019-03-08T09:27:05.115Z,4.53
2019-03-08T09:32:25.385Z,4.23
2019-03-08T09:38:02.056Z,4.23
2019-03-08T09:43:25.030Z,3.87
2019-03-08T09:48:48.673Z,4.37
2019-03-08T09:54:10.407Z,3.47
2019-03-08T09:59:36.789Z,4.03
2019-03-08T10:04:59.894Z,2.53
2019-03-08T10:10:35.505Z,2.70
2019-03-08T10:15:58.355Z,3.20
2019-03-08T10:21:24.505Z,3.83
2019-03-08T10:26:44.698Z,3.60
2019-03-08T10:32:04.879Z,4.00
2019-03-08T10:37:41.240Z,2.87
2019-03-08T10:43:01.521Z,2.83
2019-03-08T10:48:27.916Z,2.97
2019-03-08T10:53:50.877Z,2.87
2019-03-08T10:59:16.883Z,3.03
2019-03-08T11:04:40.333Z,2.50
2019-03-08T11:10:03.884Z,4.00
2019-03-08T11:15:33.310Z,2.10
2019-03-08T11:20:53.628Z,0.97
2019-03-08T11:26:21.030Z,1.87
2019-03-08T11:31:41.226Z,2.43
2019-03-08T11:37:04.251Z,2.27
2019-03-08T11:42:24.943Z,2.63
2019-03-08T11:47:52.028Z,2.67
2019-03-08T11:53:24.514Z,2.87
2019-03-08T11:58:47.902Z,3.50
2019-03-08T12:04:24.496Z,3.77
2019-03-08T12:09:50.431Z,4.60
2019-03-08T12:15:29.759Z,3.50
2019-03-08T12:20:50.216Z,4.40
2019-03-08T12:26:10.516Z,4.43
2019-03-08T12:31:33.900Z,3.80
2019-03-08T12:37:12.204Z,3.53
2019-03-08T12:42:49.109Z,3.80
2019-03-08T12:48:23.977Z,3.20
2019-03-08T12:53:55.310Z,2.00
2019-03-08T12:59:34.033Z,2.90
2019-03-08T13:04:54.236Z,2.10
2019-03-08T13:10:16.564Z,1.80
2019-03-08T13:15:35.463Z,3.08
2019-03-08T13:20:54.032Z,1.83
2019-03-08T13:26:12.587Z,1.83
2019-03-08T13:31:31.231Z,2.00
2019-03-08T13:36:49.921Z,1.60
2019-03-08T13:42:08.535Z,2.27
2019-03-08T13:47:27.093Z,1.60
2019-03-08T13:52:45.707Z,1.90
2019-03-08T13:58:04.326Z,1.20
2019-03-08T14:03:22.956Z,2.27
2019-03-08T14:08:41.489Z,2.55
2019-03-08T14:14:00.051Z,2.07
2019-03-08T14:19:18.673Z,2.80
2019-03-08T14:24:37.250Z,2.83
2019-03-08T14:29:59.204Z,2.03
2019-03-08T14:35:19.118Z,1.92
2019-03-08T14:40:48.217Z,2.33
2019-03-08T14:46:08.470Z,2.43
2019-03-08T14:51:27.014Z,3.07
2019-03-08T14:56:45.549Z,2.70
2019-03-08T15:02:04.249Z,3.03
2019-03-08T15:07:22.864Z,3.47
2019-03-08T15:12:49.229Z,3.17
2019-03-08T15:18:01.615Z,2.57
2019-03-08T15:23:20.510Z,2.20
2019-03-08T15:28:39.042Z,3.23
2019-03-08T15:33:57.691Z,2.27
2019-03-08T15:39:16.487Z,2.67
2019-03-08T15:44:39.007Z,2.67
2019-03-08T15:49:57.592Z,2.93
2019-03-08T15:55:16.211Z,2.77
2019-03-08T16:00:34.750Z,2.13
2019-03-08T16:05:53.399Z,2.40
2019-03-08T16:11:12.006Z,2.43
2019-03-08T16:16:32.158Z,3.00
2019-03-08T16:21:52.029Z,2.33
2019-03-08T16:27:10.654Z,2.17
2019-03-08T16:32:39.734Z,1.90
2019-03-08T16:38:14.770Z,1.90
2019-03-08T16:43:56.794Z,1.70
2019-03-08T16:49:22.370Z,1.80
2019-03-08T16:54:50.481Z,2.00
2019-03-08T17:00:17.162Z,1.93
2019-03-08T17:05:37.456Z,1.80
2019-03-08T17:11:03.765Z,1.40
2019-03-08T17:16:36.150Z,1.80
2019-03-08T17:22:11.772Z,1.77
2019-03-08T17:27:34.481Z,1.90
2019-03-08T17:33:10.747Z,1.90
2019-03-08T17:38:32.360Z,2.20
2019-03-08T17:43:55.538Z,1.80
2019-03-08T17:49:21.552Z,1.70
2019-03-08T17:54:44.935Z,2.10
2019-03-08T18:00:16.320Z,2.00
2019-03-08T18:05:48.727Z,1.90
2019-03-08T18:11:18.011Z,2.27
2019-03-08T18:16:54.377Z,3.20
2019-03-08T18:22:21.024Z,2.00
2019-03-08T18:27:47.671Z,2.43
2019-03-08T18:33:19.804Z,4.13
2019-03-08T18:38:45.948Z,1.70
2019-03-08T18:44:12.062Z,2.00
2019-03-08T18:49:32.453Z,1.80
2019-03-08T18:54:52.713Z,2.53
2019-03-08T19:00:14.203Z,2.33
2019-03-08T19:05:34.385Z,2.03
2019-03-08T19:10:54.561Z,2.33
2019-03-08T19:16:14.816Z,2.47
2019-03-08T19:21:37.754Z,2.58
2019-03-08T19:27:01.220Z,2.20
2019-03-08T19:32:21.442Z,2.17
2019-03-08T19:37:57.780Z,2.40
2019-03-08T19:43:18.367Z,2.77
2019-03-08T19:48:47.426Z,2.60
2019-03-08T19:54:16.465Z,2.47
2019-03-08T19:59:46.246Z,3.30
2019-03-08T20:05:16.814Z,3.13
2019-03-08T20:10:39.982Z,2.10
2019-03-08T20:16:15.548Z,2.87
2019-03-08T20:21:38.556Z,4.23
2019-03-08T20:26:58.815Z,3.27
2019-03-08T20:32:27.937Z,3.10
2019-03-08T20:37:50.966Z,3.40
2019-03-08T20:43:17.154Z,3.40
2019-03-08T20:48:35.781Z,3.40
2019-03-08T20:53:54.336Z,3.37
2019-03-08T20:59:13.059Z,3.17
2019-03-08T21:04:33.093Z,3.13
2019-03-08T21:09:52.090Z,3.57
2019-03-08T21:15:12.871Z,2.90
2019-03-08T21:20:31.785Z,3.10
2019-03-08T21:25:50.761Z,3.70
2019-03-08T21:31:09.988Z,2.90
2019-03-08T21:36:28.762Z,2.90
2019-03-08T21:41:48.063Z,3.30
2019-03-08T21:47:08.181Z,3.40
2019-03-08T21:52:28.852Z,3.20
2019-03-08T21:57:47.146Z,2.90
2019-03-08T22:03:05.783Z,3.65
2019-03-08T22:08:24.398Z,3.10
2019-03-08T22:13:42.938Z,3.13
2019-03-08T22:19:01.499Z,3.40
2019-03-08T22:24:20.073Z,3.77
2019-03-08T22:29:38.554Z,3.70
2019-03-08T22:34:57.174Z,2.77
2019-03-08T22:40:15.995Z,3.73
2019-03-08T22:45:34.742Z,3.53
2019-03-08T22:50:54.826Z,2.40
2019-03-08T22:56:13.450Z,3.40
2019-03-08T23:01:33.695Z,2.43
2019-03-08T23:06:52.234Z,3.40
2019-03-08T23:12:10.953Z,3.40
2019-03-08T23:17:29.491Z,2.70
2019-03-08T23:22:48.033Z,3.27
2019-03-08T23:28:24.478Z,2.77
2019-03-08T23:33:43.087Z,2.90
2019-03-08T23:39:01.710Z,3.10
2019-03-08T23:44:20.273Z,2.80
2019-03-08T23:49:38.840Z,2.40
2019-03-08T23:54:57.403Z,2.73
